sensor_id;sensor_type;location;lat;lon;timestamp;P1;durP1;ratioP1;P2;durP2;ratioP2
10442;SDS011;5269;51.146;16.986;2022-07-12T00:01:59;3.22;;;2.17;;
10442;SDS011;5269;51.146;16.986;2022-07-12T00:04:27;3.92;;;2.38;;
10442;SDS011;5269;51.146;16.986;2022-07-12T00:06:54;5.75;;;2.10;;
10442;SDS011;5269;51.146;16.986;2022-07-12T00:09:21;3.53;;;2.05;;
10442;SDS011;5269;51.146;16.986;2022-07-12T00:11:48;3.78;;;2.22;;
10442;SDS011;5269;51.146;16.986;2022-07-12T00:14:15;3.22;;;2.10;;
10442;SDS011;5269;51.146;16.986;2022-07-12T00:16:44;2.42;;;2.03;;
10442;SDS011;5269;51.146;16.986;2022-07-12T00:19:11;3.15;;;2.60;;
10442;SDS011;5269;51.146;16.986;2022-07-12T00:21:38;3.33;;;2.33;;
10442;SDS011;5269;51.146;16.986;2022-07-12T00:24:05;5.35;;;2.50;;
10442;SDS011;5269;51.146;16.986;2022-07-12T00:26:32;4.35;;;2.65;;
10442;SDS011;5269;51.146;16.986;2022-07-12T00:28:59;2.60;;;2.40;;
10442;SDS011;5269;51.146;16.986;2022-07-12T00:31:26;3.50;;;2.30;;
10442;SDS011;5269;51.146;16.986;2022-07-12T00:33:54;2.33;;;2.13;;
10442;SDS011;5269;51.146;16.986;2022-07-12T00:36:21;2.30;;;2.15;;
10442;SDS011;5269;51.146;16.986;2022-07-12T00:38:48;2.13;;;1.85;;
10442;SDS011;5269;51.146;16.986;2022-07-12T00:41:15;2.33;;;2.13;;
10442;SDS011;5269;51.146;16.986;2022-07-12T00:43:42;5.90;;;2.60;;
10442;SDS011;5269;51.146;16.986;2022-07-12T00:46:09;4.63;;;2.63;;
10442;SDS011;5269;51.146;16.986;2022-07-12T00:48:37;2.17;;;2.00;;
10442;SDS011;5269;51.146;16.986;2022-07-12T00:51:05;3.00;;;2.10;;
10442;SDS011;5269;51.146;16.986;2022-07-12T00:53:32;4.53;;;2.30;;
10442;SDS011;5269;51.146;16.986;2022-07-12T00:56:01;3.35;;;2.05;;
10442;SDS011;5269;51.146;16.986;2022-07-12T01:01:07;2.53;;;2.10;;
10442;SDS011;5269;51.146;16.986;2022-07-12T01:03:35;3.38;;;2.30;;
10442;SDS011;5269;51.146;16.986;2022-07-12T01:06:13;2.78;;;2.13;;
10442;SDS011;5269;51.146;16.986;2022-07-12T01:08:43;2.92;;;2.10;;
10442;SDS011;5269;51.146;16.986;2022-07-12T01:11:10;2.90;;;1.98;;
10442;SDS011;5269;51.146;16.986;2022-07-12T01:13:45;4.00;;;2.05;;
10442;SDS011;5269;51.146;16.986;2022-07-12T01:16:16;2.63;;;2.40;;
10442;SDS011;5269;51.146;16.986;2022-07-12T01:21:26;2.95;;;1.92;;
10442;SDS011;5269;51.146;16.986;2022-07-12T01:26:34;3.80;;;1.98;;
10442;SDS011;5269;51.146;16.986;2022-07-12T01:36:57;2.45;;;2.20;;
10442;SDS011;5269;51.146;16.986;2022-07-12T01:39:24;3.25;;;2.30;;
10442;SDS011;5269;51.146;16.986;2022-07-12T01:52:07;6.78;;;2.90;;
10442;SDS011;5269;51.146;16.986;2022-07-12T01:54:38;2.28;;;2.08;;
10442;SDS011;5269;51.146;16.986;2022-07-12T01:59:42;5.05;;;2.10;;
10442;SDS011;5269;51.146;16.986;2022-07-12T02:04:43;2.80;;;2.35;;
10442;SDS011;5269;51.146;16.986;2022-07-12T02:07:14;2.10;;;1.70;;
10442;SDS011;5269;51.146;16.986;2022-07-12T02:09:48;4.00;;;1.75;;
10442;SDS011;5269;51.146;16.986;2022-07-12T02:12:17;2.28;;;1.98;;
10442;SDS011;5269;51.146;16.986;2022-07-12T02:14:47;2.08;;;1.88;;
10442;SDS011;5269;51.146;16.986;2022-07-12T02:17:14;2.22;;;2.03;;
10442;SDS011;5269;51.146;16.986;2022-07-12T02:19:40;6.25;;;2.05;;
10442;SDS011;5269;51.146;16.986;2022-07-12T02:22:08;4.80;;;2.00;;
10442;SDS011;5269;51.146;16.986;2022-07-12T02:24:36;3.38;;;2.10;;
10442;SDS011;5269;51.146;16.986;2022-07-12T02:27:03;3.45;;;2.00;;
10442;SDS011;5269;51.146;16.986;2022-07-12T02:29:31;3.78;;;1.90;;
10442;SDS011;5269;51.146;16.986;2022-07-12T02:31:58;2.65;;;2.00;;
10442;SDS011;5269;51.146;16.986;2022-07-12T02:34:26;2.53;;;1.90;;
10442;SDS011;5269;51.146;16.986;2022-07-12T02:36:53;3.10;;;1.77;;
10442;SDS011;5269;51.146;16.986;2022-07-12T02:39:20;2.53;;;2.00;;
10442;SDS011;5269;51.146;16.986;2022-07-12T02:41:49;2.10;;;1.90;;
10442;SDS011;5269;51.146;16.986;2022-07-12T02:44:16;2.33;;;2.13;;
10442;SDS011;5269;51.146;16.986;2022-07-12T02:46:42;1.73;;;1.63;;
10442;SDS011;5269;51.146;16.986;2022-07-12T02:49:09;2.53;;;2.05;;
10442;SDS011;5269;51.146;16.986;2022-07-12T02:51:36;2.38;;;1.98;;
10442;SDS011;5269;51.146;16.986;2022-07-12T02:54:03;5.55;;;2.28;;
10442;SDS011;5269;51.146;16.986;2022-07-12T02:56:30;2.10;;;1.70;;
10442;SDS011;5269;51.146;16.986;2022-07-12T02:58:58;2.22;;;1.80;;
10442;SDS011;5269;51.146;16.986;2022-07-12T03:01:25;3.58;;;2.03;;
10442;SDS011;5269;51.146;16.986;2022-07-12T03:03:52;2.85;;;1.70;;
10442;SDS011;5269;51.146;16.986;2022-07-12T03:06:19;2.25;;;1.98;;
10442;SDS011;5269;51.146;16.986;2022-07-12T03:08:46;3.58;;;1.90;;
10442;SDS011;5269;51.146;16.986;2022-07-12T03:11:13;2.10;;;1.90;;
10442;SDS011;5269;51.146;16.986;2022-07-12T03:13:40;2.88;;;1.90;;
10442;SDS011;5269;51.146;16.986;2022-07-12T03:16:08;2.80;;;2.10;;
10442;SDS011;5269;51.146;16.986;2022-07-12T03:18:35;4.15;;;1.80;;
10442;SDS011;5269;51.146;16.986;2022-07-12T03:21:02;4.28;;;1.75;;
10442;SDS011;5269;51.146;16.986;2022-07-12T03:23:29;2.20;;;2.00;;
10442;SDS011;5269;51.146;16.986;2022-07-12T03:25:56;2.92;;;1.63;;
10442;SDS011;5269;51.146;16.986;2022-07-12T03:28:23;2.70;;;1.73;;
10442;SDS011;5269;51.146;16.986;2022-07-12T03:30:50;2.80;;;1.70;;
10442;SDS011;5269;51.146;16.986;2022-07-12T03:33:19;1.70;;;1.60;;
10442;SDS011;5269;51.146;16.986;2022-07-12T03:35:45;1.65;;;1.55;;
10442;SDS011;5269;51.146;16.986;2022-07-12T03:38:12;2.00;;;1.50;;
10442;SDS011;5269;51.146;16.986;2022-07-12T03:40:39;1.75;;;1.50;;
10442;SDS011;5269;51.146;16.986;2022-07-12T03:43:06;2.05;;;1.75;;
10442;SDS011;5269;51.146;16.986;2022-07-12T03:45:33;1.95;;;1.77;;
10442;SDS011;5269;51.146;16.986;2022-07-12T03:48:00;3.03;;;1.45;;
10442;SDS011;5269;51.146;16.986;2022-07-12T03:50:28;3.88;;;1.60;;
10442;SDS011;5269;51.146;16.986;2022-07-12T03:52:55;1.70;;;1.60;;
10442;SDS011;5269;51.146;16.986;2022-07-12T03:55:22;2.95;;;1.65;;
10442;SDS011;5269;51.146;16.986;2022-07-12T03:57:49;3.00;;;1.65;;
10442;SDS011;5269;51.146;16.986;2022-07-12T04:00:16;1.63;;;1.40;;
10442;SDS011;5269;51.146;16.986;2022-07-12T04:02:43;1.92;;;1.80;;
10442;SDS011;5269;51.146;16.986;2022-07-12T04:05:11;2.28;;;1.70;;
10442;SDS011;5269;51.146;16.986;2022-07-12T04:07:39;3.38;;;1.52;;
10442;SDS011;5269;51.146;16.986;2022-07-12T04:10:08;3.50;;;1.60;;
10442;SDS011;5269;51.146;16.986;2022-07-12T04:12:35;3.05;;;1.65;;
10442;SDS011;5269;51.146;16.986;2022-07-12T04:15:03;1.63;;;1.50;;
10442;SDS011;5269;51.146;16.986;2022-07-12T04:17:32;1.60;;;1.50;;
10442;SDS011;5269;51.146;16.986;2022-07-12T04:19:59;3.10;;;2.10;;
10442;SDS011;5269;51.146;16.986;2022-07-12T04:22:26;7.18;;;2.00;;
10442;SDS011;5269;51.146;16.986;2022-07-12T04:24:55;3.92;;;1.63;;
10442;SDS011;5269;51.146;16.986;2022-07-12T04:27:22;4.22;;;1.60;;
10442;SDS011;5269;51.146;16.986;2022-07-12T04:29:51;2.75;;;1.50;;
10442;SDS011;5269;51.146;16.986;2022-07-12T04:32:18;3.70;;;1.88;;
10442;SDS011;5269;51.146;16.986;2022-07-12T04:34:45;2.50;;;1.65;;
10442;SDS011;5269;51.146;16.986;2022-07-12T04:37:12;1.60;;;1.50;;
10442;SDS011;5269;51.146;16.986;2022-07-12T04:39:39;2.38;;;1.73;;
10442;SDS011;5269;51.146;16.986;2022-07-12T04:42:07;2.92;;;1.50;;
10442;SDS011;5269;51.146;16.986;2022-07-12T04:44:34;1.73;;;1.52;;
10442;SDS011;5269;51.146;16.986;2022-07-12T04:47:02;2.15;;;1.83;;
10442;SDS011;5269;51.146;16.986;2022-07-12T04:49:31;5.50;;;1.75;;
10442;SDS011;5269;51.146;16.986;2022-07-12T04:51:58;2.78;;;1.95;;
10442;SDS011;5269;51.146;16.986;2022-07-12T04:54:25;3.22;;;2.00;;
10442;SDS011;5269;51.146;16.986;2022-07-12T04:56:52;3.42;;;1.90;;
10442;SDS011;5269;51.146;16.986;2022-07-12T04:59:20;2.88;;;2.00;;
10442;SDS011;5269;51.146;16.986;2022-07-12T05:01:48;3.38;;;1.60;;
10442;SDS011;5269;51.146;16.986;2022-07-12T05:04:15;1.83;;;1.63;;
10442;SDS011;5269;51.146;16.986;2022-07-12T05:06:42;4.30;;;1.90;;
10442;SDS011;5269;51.146;16.986;2022-07-12T05:09:09;3.63;;;1.50;;
10442;SDS011;5269;51.146;16.986;2022-07-12T05:11:35;2.67;;;1.70;;
10442;SDS011;5269;51.146;16.986;2022-07-12T05:14:02;4.95;;;1.90;;
10442;SDS011;5269;51.146;16.986;2022-07-12T05:16:32;4.22;;;1.55;;
10442;SDS011;5269;51.146;16.986;2022-07-12T05:18:59;2.78;;;1.80;;
10442;SDS011;5269;51.146;16.986;2022-07-12T05:21:26;2.35;;;1.70;;
10442;SDS011;5269;51.146;16.986;2022-07-12T05:23:53;6.38;;;1.83;;
10442;SDS011;5269;51.146;16.986;2022-07-12T05:26:20;4.78;;;1.80;;
10442;SDS011;5269;51.146;16.986;2022-07-12T05:28:47;4.90;;;1.80;;
10442;SDS011;5269;51.146;16.986;2022-07-12T05:31:13;6.15;;;2.00;;
10442;SDS011;5269;51.146;16.986;2022-07-12T05:33:42;3.03;;;1.85;;
10442;SDS011;5269;51.146;16.986;2022-07-12T05:36:09;5.63;;;1.83;;
10442;SDS011;5269;51.146;16.986;2022-07-12T05:38:36;6.47;;;1.83;;
10442;SDS011;5269;51.146;16.986;2022-07-12T05:41:03;4.55;;;1.77;;
10442;SDS011;5269;51.146;16.986;2022-07-12T05:43:30;5.90;;;2.00;;
10442;SDS011;5269;51.146;16.986;2022-07-12T05:45:57;3.88;;;2.10;;
10442;SDS011;5269;51.146;16.986;2022-07-12T05:48:24;6.80;;;1.90;;
10442;SDS011;5269;51.146;16.986;2022-07-12T05:50:52;2.72;;;1.80;;
10442;SDS011;5269;51.146;16.986;2022-07-12T05:53:22;2.58;;;1.50;;
10442;SDS011;5269;51.146;16.986;2022-07-12T05:55:49;6.45;;;1.90;;
10442;SDS011;5269;51.146;16.986;2022-07-12T05:58:16;2.88;;;1.92;;
10442;SDS011;5269;51.146;16.986;2022-07-12T06:00:44;3.90;;;1.90;;
10442;SDS011;5269;51.146;16.986;2022-07-12T06:03:11;5.75;;;1.88;;
10442;SDS011;5269;51.146;16.986;2022-07-12T06:05:38;3.03;;;1.88;;
10442;SDS011;5269;51.146;16.986;2022-07-12T06:08:07;4.75;;;1.92;;
10442;SDS011;5269;51.146;16.986;2022-07-12T06:10:34;5.80;;;2.00;;
10442;SDS011;5269;51.146;16.986;2022-07-12T06:13:01;5.03;;;1.80;;
10442;SDS011;5269;51.146;16.986;2022-07-12T06:15:28;2.40;;;1.52;;
10442;SDS011;5269;51.146;16.986;2022-07-12T06:17:57;5.97;;;1.70;;
10442;SDS011;5269;51.146;16.986;2022-07-12T06:20:24;2.28;;;1.50;;
10442;SDS011;5269;51.146;16.986;2022-07-12T06:22:51;2.30;;;1.50;;
10442;SDS011;5269;51.146;16.986;2022-07-12T06:25:19;3.42;;;1.95;;
10442;SDS011;5269;51.146;16.986;2022-07-12T06:27:46;3.00;;;1.30;;
10442;SDS011;5269;51.146;16.986;2022-07-12T06:30:14;2.90;;;1.60;;
10442;SDS011;5269;51.146;16.986;2022-07-12T06:32:43;2.88;;;1.70;;
10442;SDS011;5269;51.146;16.986;2022-07-12T06:35:11;2.58;;;1.48;;
10442;SDS011;5269;51.146;16.986;2022-07-12T06:37:38;4.97;;;1.52;;
10442;SDS011;5269;51.146;16.986;2022-07-12T06:40:05;4.72;;;1.35;;
10442;SDS011;5269;51.146;16.986;2022-07-12T06:42:34;2.15;;;1.50;;
10442;SDS011;5269;51.146;16.986;2022-07-12T06:45:01;1.85;;;1.30;;
10442;SDS011;5269;51.146;16.986;2022-07-12T06:47:28;2.05;;;1.40;;
10442;SDS011;5269;51.146;16.986;2022-07-12T06:49:55;1.45;;;1.35;;
10442;SDS011;5269;51.146;16.986;2022-07-12T06:52:22;3.13;;;1.60;;
10442;SDS011;5269;51.146;16.986;2022-07-12T06:54:49;1.58;;;1.40;;
10442;SDS011;5269;51.146;16.986;2022-07-12T06:57:16;6.78;;;1.67;;
10442;SDS011;5269;51.146;16.986;2022-07-12T06:59:45;3.35;;;1.60;;
10442;SDS011;5269;51.146;16.986;2022-07-12T07:02:13;3.78;;;1.70;;
10442;SDS011;5269;51.146;16.986;2022-07-12T07:04:40;2.60;;;1.50;;
10442;SDS011;5269;51.146;16.986;2022-07-12T07:07:07;3.72;;;1.77;;
10442;SDS011;5269;51.146;16.986;2022-07-12T07:09:34;3.53;;;1.70;;
10442;SDS011;5269;51.146;16.986;2022-07-12T07:12:00;5.45;;;1.95;;
10442;SDS011;5269;51.146;16.986;2022-07-12T07:14:28;4.18;;;1.67;;
10442;SDS011;5269;51.146;16.986;2022-07-12T07:16:57;3.00;;;1.80;;
10442;SDS011;5269;51.146;16.986;2022-07-12T07:19:24;2.10;;;1.90;;
10442;SDS011;5269;51.146;16.986;2022-07-12T07:21:51;2.70;;;1.85;;
10442;SDS011;5269;51.146;16.986;2022-07-12T07:24:19;5.38;;;1.80;;
10442;SDS011;5269;51.146;16.986;2022-07-12T07:26:46;4.88;;;1.90;;
10442;SDS011;5269;51.146;16.986;2022-07-12T07:29:13;2.50;;;1.50;;
10442;SDS011;5269;51.146;16.986;2022-07-12T07:31:59;7.63;;;1.73;;
10442;SDS011;5269;51.146;16.986;2022-07-12T07:34:26;2.92;;;1.40;;
10442;SDS011;5269;51.146;16.986;2022-07-12T07:36:53;2.30;;;1.88;;
10442;SDS011;5269;51.146;16.986;2022-07-12T07:39:20;4.10;;;1.80;;
10442;SDS011;5269;51.146;16.986;2022-07-12T07:41:47;2.75;;;1.80;;
10442;SDS011;5269;51.146;16.986;2022-07-12T07:44:14;2.88;;;1.85;;
10442;SDS011;5269;51.146;16.986;2022-07-12T07:46:41;1.58;;;1.48;;
10442;SDS011;5269;51.146;16.986;2022-07-12T07:49:09;2.17;;;1.60;;
10442;SDS011;5269;51.146;16.986;2022-07-12T07:51:39;1.70;;;1.60;;
10442;SDS011;5269;51.146;16.986;2022-07-12T07:54:06;2.20;;;1.75;;
10442;SDS011;5269;51.146;16.986;2022-07-12T07:56:35;4.03;;;1.70;;
10442;SDS011;5269;51.146;16.986;2022-07-12T07:59:02;3.55;;;1.85;;
10442;SDS011;5269;51.146;16.986;2022-07-12T08:01:44;2.53;;;1.60;;
10442;SDS011;5269;51.146;16.986;2022-07-12T08:04:17;3.45;;;1.80;;
10442;SDS011;5269;51.146;16.986;2022-07-12T08:06:46;1.60;;;1.50;;
10442;SDS011;5269;51.146;16.986;2022-07-12T08:09:18;3.63;;;1.90;;
10442;SDS011;5269;51.146;16.986;2022-07-12T08:11:46;2.10;;;1.90;;
10442;SDS011;5269;51.146;16.986;2022-07-12T08:14:17;6.82;;;1.70;;
10442;SDS011;5269;51.146;16.986;2022-07-12T08:16:45;2.00;;;1.80;;
10442;SDS011;5269;51.146;16.986;2022-07-12T08:19:57;2.72;;;1.73;;
10442;SDS011;5269;51.146;16.986;2022-07-12T08:22:24;3.33;;;1.90;;
10442;SDS011;5269;51.146;16.986;2022-07-12T08:27:47;3.30;;;2.20;;
10442;SDS011;5269;51.146;16.986;2022-07-12T08:30:17;2.30;;;2.10;;
10442;SDS011;5269;51.146;16.986;2022-07-12T08:32:44;3.05;;;2.40;;
10442;SDS011;5269;51.146;16.986;2022-07-12T08:35:17;2.30;;;2.20;;
10442;SDS011;5269;51.146;16.986;2022-07-12T08:37:45;2.30;;;2.10;;
10442;SDS011;5269;51.146;16.986;2022-07-12T08:40:12;2.30;;;2.10;;
10442;SDS011;5269;51.146;16.986;2022-07-12T08:42:40;2.58;;;2.20;;
10442;SDS011;5269;51.146;16.986;2022-07-12T08:48:14;3.33;;;2.17;;
10442;SDS011;5269;51.146;16.986;2022-07-12T08:50:42;2.10;;;2.00;;
10442;SDS011;5269;51.146;16.986;2022-07-12T08:53:25;2.00;;;1.90;;
10442;SDS011;5269;51.146;16.986;2022-07-12T08:59:08;2.70;;;2.50;;
10442;SDS011;5269;51.146;16.986;2022-07-12T09:01:39;2.10;;;1.98;;
10442;SDS011;5269;51.146;16.986;2022-07-12T09:04:14;2.90;;;1.90;;
10442;SDS011;5269;51.146;16.986;2022-07-12T09:06:53;5.50;;;2.20;;
10442;SDS011;5269;51.146;16.986;2022-07-12T09:09:47;2.05;;;1.95;;
10442;SDS011;5269;51.146;16.986;2022-07-12T09:15:17;2.25;;;2.10;;
10442;SDS011;5269;51.146;16.986;2022-07-12T09:17:54;2.20;;;2.00;;
10442;SDS011;5269;51.146;16.986;2022-07-12T09:20:40;2.33;;;1.98;;
10442;SDS011;5269;51.146;16.986;2022-07-12T09:23:10;2.20;;;1.88;;
10442;SDS011;5269;51.146;16.986;2022-07-12T09:29:05;3.92;;;2.45;;
10442;SDS011;5269;51.146;16.986;2022-07-12T09:31:41;2.28;;;2.17;;
10442;SDS011;5269;51.146;16.986;2022-07-12T09:34:23;2.72;;;2.28;;
10442;SDS011;5269;51.146;16.986;2022-07-12T09:37:07;2.10;;;2.00;;
10442;SDS011;5269;51.146;16.986;2022-07-12T09:42:33;2.33;;;2.22;;
10442;SDS011;5269;51.146;16.986;2022-07-12T09:45:00;2.10;;;2.00;;
10442;SDS011;5269;51.146;16.986;2022-07-12T09:47:28;2.40;;;2.25;;
10442;SDS011;5269;51.146;16.986;2022-07-12T09:49:56;4.50;;;2.33;;
10442;SDS011;5269;51.146;16.986;2022-07-12T09:52:28;2.15;;;1.95;;
10442;SDS011;5269;51.146;16.986;2022-07-12T09:54:59;2.45;;;2.30;;
10442;SDS011;5269;51.146;16.986;2022-07-12T09:57:29;2.20;;;2.10;;
10442;SDS011;5269;51.146;16.986;2022-07-12T09:59:57;2.22;;;2.03;;
10442;SDS011;5269;51.146;16.986;2022-07-12T10:02:26;1.75;;;1.65;;
10442;SDS011;5269;51.146;16.986;2022-07-12T10:04:54;1.75;;;1.70;;
10442;SDS011;5269;51.146;16.986;2022-07-12T10:07:21;1.92;;;1.83;;
10442;SDS011;5269;51.146;16.986;2022-07-12T10:09:50;2.45;;;2.08;;
10442;SDS011;5269;51.146;16.986;2022-07-12T10:12:20;1.85;;;1.80;;
10442;SDS011;5269;51.146;16.986;2022-07-12T10:14:49;2.42;;;2.22;;
10442;SDS011;5269;51.146;16.986;2022-07-12T10:17:21;1.88;;;1.77;;
10442;SDS011;5269;51.146;16.986;2022-07-12T10:19:49;2.88;;;1.95;;
10442;SDS011;5269;51.146;16.986;2022-07-12T10:22:36;2.50;;;2.30;;
10442;SDS011;5269;51.146;16.986;2022-07-12T10:25:03;3.35;;;2.33;;
10442;SDS011;5269;51.146;16.986;2022-07-12T10:27:52;2.22;;;2.13;;
10442;SDS011;5269;51.146;16.986;2022-07-12T10:30:20;2.00;;;1.90;;
10442;SDS011;5269;51.146;16.986;2022-07-12T10:32:49;2.15;;;1.98;;
10442;SDS011;5269;51.146;16.986;2022-07-12T10:35:19;2.00;;;1.90;;
10442;SDS011;5269;51.146;16.986;2022-07-12T10:40:49;2.03;;;1.80;;
10442;SDS011;5269;51.146;16.986;2022-07-12T10:43:23;2.00;;;1.80;;
10442;SDS011;5269;51.146;16.986;2022-07-12T10:46:22;2.50;;;1.88;;
10442;SDS011;5269;51.146;16.986;2022-07-12T10:48:51;2.25;;;1.80;;
10442;SDS011;5269;51.146;16.986;2022-07-12T10:51:33;2.28;;;2.17;;
10442;SDS011;5269;51.146;16.986;2022-07-12T10:54:07;2.20;;;2.10;;
10442;SDS011;5269;51.146;16.986;2022-07-12T10:56:54;2.30;;;2.20;;
10442;SDS011;5269;51.146;16.986;2022-07-12T10:59:23;2.30;;;2.20;;
10442;SDS011;5269;51.146;16.986;2022-07-12T11:01:52;3.65;;;2.40;;
10442;SDS011;5269;51.146;16.986;2022-07-12T11:04:21;2.15;;;2.08;;
10442;SDS011;5269;51.146;16.986;2022-07-12T11:06:49;4.45;;;1.90;;
10442;SDS011;5269;51.146;16.986;2022-07-12T11:09:20;2.00;;;1.90;;
10442;SDS011;5269;51.146;16.986;2022-07-12T11:11:48;2.22;;;2.10;;
10442;SDS011;5269;51.146;16.986;2022-07-12T11:14:20;2.10;;;1.90;;
10442;SDS011;5269;51.146;16.986;2022-07-12T11:16:49;4.20;;;2.30;;
10442;SDS011;5269;51.146;16.986;2022-07-12T11:19:20;2.50;;;2.40;;
10442;SDS011;5269;51.146;16.986;2022-07-12T11:21:49;1.73;;;1.70;;
10442;SDS011;5269;51.146;16.986;2022-07-12T11:24:21;2.13;;;2.03;;
10442;SDS011;5269;51.146;16.986;2022-07-12T11:26:49;2.10;;;2.00;;
10442;SDS011;5269;51.146;16.986;2022-07-12T11:29:17;2.80;;;1.95;;
10442;SDS011;5269;51.146;16.986;2022-07-12T11:31:44;2.25;;;2.05;;
10442;SDS011;5269;51.146;16.986;2022-07-12T11:34:22;2.22;;;2.13;;
10442;SDS011;5269;51.146;16.986;2022-07-12T11:36:52;5.63;;;2.33;;
10442;SDS011;5269;51.146;16.986;2022-07-12T11:39:29;5.65;;;2.05;;
10442;SDS011;5269;51.146;16.986;2022-07-12T11:41:58;2.55;;;1.90;;
10442;SDS011;5269;51.146;16.986;2022-07-12T11:47:08;5.35;;;1.60;;
10442;SDS011;5269;51.146;16.986;2022-07-12T11:49:36;1.98;;;1.88;;
10442;SDS011;5269;51.146;16.986;2022-07-12T11:52:09;4.40;;;2.17;;
10442;SDS011;5269;51.146;16.986;2022-07-12T11:54:38;1.95;;;1.55;;
10442;SDS011;5269;51.146;16.986;2022-07-12T11:57:06;4.25;;;1.90;;
10442;SDS011;5269;51.146;16.986;2022-07-12T11:59:34;1.75;;;1.65;;
10442;SDS011;5269;51.146;16.986;2022-07-12T12:02:05;2.25;;;1.70;;
10442;SDS011;5269;51.146;16.986;2022-07-12T12:04:38;1.95;;;1.85;;
10442;SDS011;5269;51.146;16.986;2022-07-12T12:07:13;2.00;;;1.90;;
10442;SDS011;5269;51.146;16.986;2022-07-12T12:09:57;4.75;;;2.33;;
10442;SDS011;5269;51.146;16.986;2022-07-12T12:12:25;2.35;;;1.90;;
10442;SDS011;5269;51.146;16.986;2022-07-12T12:14:52;3.03;;;2.50;;
10442;SDS011;5269;51.146;16.986;2022-07-12T12:17:19;2.20;;;2.10;;
10442;SDS011;5269;51.146;16.986;2022-07-12T12:19:47;2.75;;;2.60;;
10442;SDS011;5269;51.146;16.986;2022-07-12T12:22:26;2.60;;;2.50;;
10442;SDS011;5269;51.146;16.986;2022-07-12T12:24:58;2.60;;;2.50;;
10442;SDS011;5269;51.146;16.986;2022-07-12T12:27:25;2.40;;;2.20;;
10442;SDS011;5269;51.146;16.986;2022-07-12T12:29:52;2.33;;;2.22;;
10442;SDS011;5269;51.146;16.986;2022-07-12T12:32:19;2.45;;;2.10;;
10442;SDS011;5269;51.146;16.986;2022-07-12T12:35:06;2.50;;;2.30;;
10442;SDS011;5269;51.146;16.986;2022-07-12T12:37:33;2.38;;;2.28;;
10442;SDS011;5269;51.146;16.986;2022-07-12T12:40:01;2.97;;;2.28;;
10442;SDS011;5269;51.146;16.986;2022-07-12T12:42:28;2.50;;;1.80;;
10442;SDS011;5269;51.146;16.986;2022-07-12T12:44:55;2.20;;;2.10;;
10442;SDS011;5269;51.146;16.986;2022-07-12T12:47:22;1.98;;;1.88;;
10442;SDS011;5269;51.146;16.986;2022-07-12T12:49:59;2.05;;;1.95;;
10442;SDS011;5269;51.146;16.986;2022-07-12T12:52:28;1.77;;;1.70;;
10442;SDS011;5269;51.146;16.986;2022-07-12T12:54:56;2.10;;;1.73;;
10442;SDS011;5269;51.146;16.986;2022-07-12T12:57:24;1.90;;;1.80;;
10442;SDS011;5269;51.146;16.986;2022-07-12T12:59:52;2.15;;;2.05;;
10442;SDS011;5269;51.146;16.986;2022-07-12T13:02:19;2.00;;;1.90;;
10442;SDS011;5269;51.146;16.986;2022-07-12T13:04:49;2.20;;;2.00;;
10442;SDS011;5269;51.146;16.986;2022-07-12T13:07:16;2.90;;;1.85;;
10442;SDS011;5269;51.146;16.986;2022-07-12T13:09:45;1.98;;;1.88;;
10442;SDS011;5269;51.146;16.986;2022-07-12T13:12:12;1.40;;;1.40;;
10442;SDS011;5269;51.146;16.986;2022-07-12T13:14:39;1.20;;;1.20;;
10442;SDS011;5269;51.146;16.986;2022-07-12T13:17:06;1.50;;;1.45;;
10442;SDS011;5269;51.146;16.986;2022-07-12T13:19:33;2.20;;;1.52;;
10442;SDS011;5269;51.146;16.986;2022-07-12T13:22:02;1.70;;;1.60;;
10442;SDS011;5269;51.146;16.986;2022-07-12T13:24:29;1.60;;;1.50;;
10442;SDS011;5269;51.146;16.986;2022-07-12T13:26:57;1.70;;;1.60;;
10442;SDS011;5269;51.146;16.986;2022-07-12T13:29:24;2.90;;;1.60;;
10442;SDS011;5269;51.146;16.986;2022-07-12T13:31:51;2.25;;;1.67;;
10442;SDS011;5269;51.146;16.986;2022-07-12T13:34:18;1.45;;;1.40;;
10442;SDS011;5269;51.146;16.986;2022-07-12T13:36:45;1.63;;;1.40;;
10442;SDS011;5269;51.146;16.986;2022-07-12T13:39:12;1.45;;;1.35;;
10442;SDS011;5269;51.146;16.986;2022-07-12T13:41:58;1.63;;;1.50;;
10442;SDS011;5269;51.146;16.986;2022-07-12T13:44:26;1.40;;;1.40;;
10442;SDS011;5269;51.146;16.986;2022-07-12T13:46:53;1.67;;;1.60;;
10442;SDS011;5269;51.146;16.986;2022-07-12T13:49:20;1.60;;;1.50;;
10442;SDS011;5269;51.146;16.986;2022-07-12T13:51:47;2.55;;;1.67;;
10442;SDS011;5269;51.146;16.986;2022-07-12T13:54:14;1.80;;;1.70;;
10442;SDS011;5269;51.146;16.986;2022-07-12T13:56:41;1.60;;;1.60;;
10442;SDS011;5269;51.146;16.986;2022-07-12T13:59:09;1.60;;;1.60;;
10442;SDS011;5269;51.146;16.986;2022-07-12T14:01:37;2.00;;;1.83;;
10442;SDS011;5269;51.146;16.986;2022-07-12T14:04:04;1.98;;;1.52;;
10442;SDS011;5269;51.146;16.986;2022-07-12T14:06:31;1.92;;;1.38;;
10442;SDS011;5269;51.146;16.986;2022-07-12T14:08:58;1.60;;;1.50;;
10442;SDS011;5269;51.146;16.986;2022-07-12T14:11:25;1.65;;;1.60;;
10442;SDS011;5269;51.146;16.986;2022-07-12T14:13:51;1.98;;;1.92;;
10442;SDS011;5269;51.146;16.986;2022-07-12T14:16:20;3.05;;;1.60;;
10442;SDS011;5269;51.146;16.986;2022-07-12T14:18:47;1.85;;;1.75;;
10442;SDS011;5269;51.146;16.986;2022-07-12T14:21:14;1.65;;;1.25;;
10442;SDS011;5269;51.146;16.986;2022-07-12T14:23:41;1.40;;;1.40;;
10442;SDS011;5269;51.146;16.986;2022-07-12T14:26:09;3.05;;;1.40;;
10442;SDS011;5269;51.146;16.986;2022-07-12T14:28:36;2.17;;;1.52;;
10442;SDS011;5269;51.146;16.986;2022-07-12T14:31:03;1.40;;;1.40;;
10442;SDS011;5269;51.146;16.986;2022-07-12T14:33:32;2.97;;;1.80;;
10442;SDS011;5269;51.146;16.986;2022-07-12T14:35:59;1.70;;;1.60;;
10442;SDS011;5269;51.146;16.986;2022-07-12T14:38:26;1.70;;;1.65;;
10442;SDS011;5269;51.146;16.986;2022-07-12T14:40:54;1.80;;;1.50;;
10442;SDS011;5269;51.146;16.986;2022-07-12T14:43:21;1.80;;;1.70;;
10442;SDS011;5269;51.146;16.986;2022-07-12T14:45:48;1.92;;;1.83;;
10442;SDS011;5269;51.146;16.986;2022-07-12T14:48:15;1.70;;;1.60;;
10442;SDS011;5269;51.146;16.986;2022-07-12T14:50:43;2.00;;;1.50;;
10442;SDS011;5269;51.146;16.986;2022-07-12T14:53:10;2.22;;;1.70;;
10442;SDS011;5269;51.146;16.986;2022-07-12T14:55:37;2.50;;;1.60;;
10442;SDS011;5269;51.146;16.986;2022-07-12T14:58:05;2.65;;;1.92;;
10442;SDS011;5269;51.146;16.986;2022-07-12T15:00:34;2.50;;;1.58;;
10442;SDS011;5269;51.146;16.986;2022-07-12T15:03:01;1.50;;;1.40;;
10442;SDS011;5269;51.146;16.986;2022-07-12T15:05:28;2.05;;;1.67;;
10442;SDS011;5269;51.146;16.986;2022-07-12T15:07:56;3.47;;;1.80;;
10442;SDS011;5269;51.146;16.986;2022-07-12T15:10:23;3.13;;;1.30;;
10442;SDS011;5269;51.146;16.986;2022-07-12T15:12:51;1.50;;;1.30;;
10442;SDS011;5269;51.146;16.986;2022-07-12T15:15:18;1.90;;;1.52;;
10442;SDS011;5269;51.146;16.986;2022-07-12T15:17:45;2.92;;;1.38;;
10442;SDS011;5269;51.146;16.986;2022-07-12T15:20:12;2.03;;;1.38;;
10442;SDS011;5269;51.146;16.986;2022-07-12T15:22:39;1.25;;;1.25;;
10442;SDS011;5269;51.146;16.986;2022-07-12T15:25:08;1.35;;;1.25;;
10442;SDS011;5269;51.146;16.986;2022-07-12T15:27:35;1.40;;;1.30;;
10442;SDS011;5269;51.146;16.986;2022-07-12T15:30:02;2.50;;;1.30;;
10442;SDS011;5269;51.146;16.986;2022-07-12T15:32:29;1.67;;;1.58;;
10442;SDS011;5269;51.146;16.986;2022-07-12T15:34:56;5.82;;;1.65;;
10442;SDS011;5269;51.146;16.986;2022-07-12T15:37:24;2.50;;;1.33;;
10442;SDS011;5269;51.146;16.986;2022-07-12T15:39:51;1.40;;;1.40;;
10442;SDS011;5269;51.146;16.986;2022-07-12T15:42:19;2.03;;;1.65;;
10442;SDS011;5269;51.146;16.986;2022-07-12T15:44:46;3.42;;;1.45;;
10442;SDS011;5269;51.146;16.986;2022-07-12T15:47:13;1.52;;;1.40;;
10442;SDS011;5269;51.146;16.986;2022-07-12T15:49:40;1.30;;;1.30;;
10442;SDS011;5269;51.146;16.986;2022-07-12T15:52:07;2.67;;;1.40;;
10442;SDS011;5269;51.146;16.986;2022-07-12T15:54:52;2.85;;;1.50;;